createdAt,value
2022-09-16T00:00:55.996Z,97985.00
2022-09-16T00:03:23.010Z,97987.63
2022-09-16T00:05:53.399Z,97980.50
2022-09-16T00:08:21.771Z,97983.66
2022-09-16T00:10:49.399Z,97976.28
2022-09-16T00:13:16.825Z,97979.69
2022-09-16T00:15:49.377Z,97983.44
2022-09-16T00:18:16.317Z,97991.59
2022-09-16T00:21:01.584Z,97986.88
2022-09-16T00:23:36.020Z,97992.63
2022-09-16T00:26:46.400Z,97995.00
2022-09-16T00:29:13.248Z,97991.59
2022-09-16T00:31:40.293Z,97995.03
2022-09-16T00:34:06.957Z,97994.00
2022-09-16T00:36:33.793Z,97999.00
2022-09-16T00:39:00.589Z,97997.66
2022-09-16T00:41:33.175Z,98000.78
2022-09-16T00:44:05.756Z,97996.84
2022-09-16T00:46:39.697Z,97992.09
2022-09-16T00:49:13.364Z,97982.56
2022-09-16T00:51:41.592Z,97978.34
2022-09-16T00:54:10.502Z,97986.75
2022-09-16T00:56:41.863Z,97978.06
2022-09-16T00:59:14.855Z,97972.59
2022-09-16T01:01:50.606Z,97979.97
2022-09-16T01:04:26.763Z,97979.94
2022-09-16T01:06:57.135Z,97990.22
2022-09-16T01:09:26.189Z,97973.13
2022-09-16T01:11:53.070Z,97975.00
2022-09-16T01:14:41.083Z,97976.38
2022-09-16T01:17:20.586Z,97977.69
2022-09-16T01:20:12.103Z,97982.19
2022-09-16T01:22:44.758Z,97983.50
2022-09-16T01:25:41.716Z,97994.34
2022-09-16T01:28:38.047Z,97979.59
2022-09-16T01:31:33.855Z,97979.81
2022-09-16T01:34:18.863Z,97975.66
2022-09-16T01:37:07.761Z,97990.13
2022-09-16T01:39:49.876Z,97975.94
2022-09-16T01:42:58.618Z,97974.91
2022-09-16T01:45:58.184Z,97974.88
2022-09-16T01:48:53.025Z,97981.44
2022-09-16T01:51:31.965Z,97980.41
2022-09-16T01:54:05.979Z,97983.03
2022-09-16T01:56:49.891Z,97986.22
2022-09-16T01:59:31.593Z,97984.06
2022-09-16T02:02:09.611Z,97978.06
2022-09-16T02:04:51.685Z,97975.63
2022-09-16T02:07:23.452Z,97973.84
2022-09-16T02:09:56.763Z,97972.81
2022-09-16T02:12:34.968Z,97961.50
2022-09-16T02:15:08.563Z,97972.28
2022-09-16T02:17:41.942Z,97976.50
2022-09-16T02:20:13.477Z,97980.19
2022-09-16T02:22:44.793Z,97980.19
2022-09-16T02:25:14.989Z,97982.31
2022-09-16T02:27:46.085Z,97978.63
2022-09-16T02:30:18.607Z,97990.19
2022-09-16T02:32:58.662Z,97985.72
2022-09-16T02:35:27.596Z,97983.66
2022-09-16T02:38:29.398Z,97991.53
2022-09-16T02:40:58.416Z,97986.03
2022-09-16T02:43:26.954Z,97978.66
2022-09-16T02:46:19.328Z,97987.88
2022-09-16T02:48:50.431Z,97983.41
2022-09-16T02:51:34.454Z,97986.53
2022-09-16T02:54:37.321Z,97982.31
2022-09-16T02:57:05.054Z,97979.69
2022-09-16T02:59:32.518Z,97982.06
2022-09-16T03:02:01.500Z,97973.38
2022-09-16T03:04:29.512Z,97971.00
2022-09-16T03:06:59.089Z,97977.06
2022-09-16T03:09:26.182Z,97973.41
2022-09-16T03:12:16.772Z,97967.09
2022-09-16T03:14:43.781Z,97974.72
2022-09-16T03:17:36.668Z,97980.78
2022-09-16T03:20:17.118Z,97972.13
2022-09-16T03:22:50.867Z,97979.97
2022-09-16T03:25:39.807Z,97971.84
2022-09-16T03:28:17.041Z,97972.63
2022-09-16T03:30:53.724Z,97973.66
2022-09-16T03:33:54.009Z,97971.56
2022-09-16T03:36:29.547Z,97979.72
2022-09-16T03:38:58.802Z,97982.63
2022-09-16T03:41:29.955Z,97975.00
2022-09-16T03:44:03.767Z,97968.44
2022-09-16T03:46:31.744Z,97971.31
2022-09-16T03:49:00.414Z,97980.78
2022-09-16T03:51:27.102Z,97975.47
2022-09-16T03:53:54.539Z,97973.66
2022-09-16T03:56:25.887Z,97970.78
2022-09-16T03:58:52.812Z,97970.53
2022-09-16T04:01:23.088Z,97970.53
2022-09-16T04:03:49.929Z,97975.28
2022-09-16T04:06:16.639Z,97962.66
2022-09-16T04:08:45.139Z,97970.28
2022-09-16T04:11:11.853Z,97964.78
2022-09-16T04:13:38.568Z,97961.59
2022-09-16T04:16:05.683Z,97967.66
2022-09-16T04:18:33.489Z,97971.31
2022-09-16T04:21:02.047Z,97960.06
2022-09-16T04:23:31.378Z,97964.78
2022-09-16T04:25:59.628Z,97960.81
2022-09-16T04:28:26.633Z,97956.09
2022-09-16T04:30:53.779Z,97959.50
2022-09-16T04:33:21.154Z,97955.81
2022-09-16T04:35:50.623Z,97951.09
2022-09-16T04:38:17.220Z,97947.41
2022-09-16T04:40:43.854Z,97948.72
2022-09-16T04:43:15.902Z,97952.38
2022-09-16T04:45:42.544Z,97947.91
2022-09-16T04:48:09.526Z,97943.69
2022-09-16T04:50:36.435Z,97940.28
2022-09-16T04:53:03.393Z,97926.59
2022-09-16T04:55:30.226Z,97924.50
2022-09-16T04:58:00.906Z,97939.72
2022-09-16T05:00:28.004Z,97942.66
2022-09-16T05:02:54.874Z,97950.00
2022-09-16T05:05:22.016Z,97947.38
2022-09-16T05:07:48.528Z,97945.03
2022-09-16T05:10:15.287Z,97952.38
2022-09-16T05:12:41.778Z,97965.53
2022-09-16T05:15:11.190Z,97970.00
2022-09-16T05:17:50.759Z,97963.69
2022-09-16T05:20:18.112Z,97965.50
2022-09-16T05:22:53.147Z,97956.59
2022-09-16T05:25:19.749Z,97964.22
2022-09-16T05:27:47.186Z,97971.31
2022-09-16T05:30:15.832Z,97971.84
2022-09-16T05:32:42.797Z,97980.00
2022-09-16T05:35:10.199Z,97972.41
2022-09-16T05:37:36.839Z,97972.41
2022-09-16T05:40:03.676Z,97967.94
2022-09-16T05:42:30.425Z,97977.13
2022-09-16T05:44:56.839Z,97983.19
2022-09-16T05:47:23.273Z,97980.81
2022-09-16T05:49:49.920Z,97980.00
2022-09-16T05:52:16.441Z,97970.81
2022-09-16T05:54:43.320Z,97973.19
2022-09-16T05:57:09.849Z,97976.06
2022-09-16T05:59:36.334Z,97976.06
2022-09-16T06:02:03.060Z,97980.28
2022-09-16T06:04:29.633Z,97988.66
2022-09-16T06:06:56.200Z,97990.78
2022-09-16T06:09:24.671Z,97982.91
2022-09-16T06:11:56.639Z,97985.25
2022-09-16T06:14:25.084Z,97986.28
2022-09-16T06:16:51.924Z,97978.16
2022-09-16T06:19:18.873Z,97982.63
2022-09-16T06:21:45.942Z,97983.41
2022-09-16T06:24:14.270Z,97968.94
2022-09-16T06:26:42.641Z,97976.81
2022-09-16T06:29:10.114Z,97983.13
2022-09-16T06:31:37.882Z,97973.69
2022-09-16T06:34:05.467Z,97968.41
2022-09-16T06:36:35.010Z,97974.44
2022-09-16T06:39:01.623Z,97979.97
2022-09-16T06:41:28.152Z,97977.09
2022-09-16T06:43:54.790Z,97970.53
2022-09-16T06:46:24.702Z,97978.41
2022-09-16T06:48:53.985Z,97984.94
2022-09-16T06:51:25.690Z,97974.44
2022-09-16T06:53:56.903Z,97974.66
2022-09-16T06:56:23.443Z,97980.47
2022-09-16T06:58:55.783Z,97985.50
2022-09-16T07:01:29.082Z,97993.13
2022-09-16T07:03:59.107Z,97985.50
2022-09-16T07:09:19.102Z,97977.84
2022-09-16T07:11:45.651Z,97972.34
2022-09-16T07:14:12.364Z,97966.78
2022-09-16T07:16:38.899Z,97974.09
2022-09-16T07:19:06.065Z,97975.91
2022-09-16T07:21:32.800Z,97964.31
2022-09-16T07:24:01.387Z,97970.28
2022-09-16T07:26:33.565Z,97976.09
2022-09-16T07:29:02.137Z,97975.34
2022-09-16T07:31:30.996Z,97973.50
2022-09-16T07:34:03.786Z,97977.72
2022-09-16T07:36:34.498Z,97977.66
2022-09-16T07:39:01.486Z,97970.63
2022-09-16T07:41:30.740Z,97965.94
2022-09-16T07:44:01.002Z,97961.41
2022-09-16T07:46:30.699Z,97961.88
2022-09-16T07:48:59.197Z,97966.53
2022-09-16T07:51:27.600Z,97972.84
2022-09-16T07:53:56.317Z,97957.75
2022-09-16T07:56:25.452Z,97967.72
2022-09-16T07:58:53.242Z,97968.63
2022-09-16T08:01:20.177Z,97968.84
2022-09-16T08:03:48.965Z,97956.59
2022-09-16T08:06:22.284Z,97965.09
2022-09-16T08:08:52.503Z,97964.59
2022-09-16T08:11:19.242Z,97971.78
2022-09-16T08:13:46.442Z,97972.38
2022-09-16T08:16:18.737Z,97965.53
2022-09-16T08:18:47.377Z,97971.50
2022-09-16T08:21:26.152Z,97967.69
2022-09-16T08:23:52.949Z,97982.78
2022-09-16T08:26:20.706Z,97979.00
2022-09-16T08:29:08.889Z,97975.69
2022-09-16T08:31:37.335Z,97977.72
2022-09-16T08:34:04.175Z,97981.50
2022-09-16T08:36:33.462Z,97987.78
2022-09-16T08:39:00.346Z,97990.03
2022-09-16T08:41:48.966Z,97992.31
2022-09-16T08:44:24.777Z,97991.84
2022-09-16T08:47:09.073Z,97992.41
2022-09-16T08:49:43.982Z,97990.19
2022-09-16T08:52:15.411Z,97985.19
2022-09-16T08:54:49.836Z,97978.50
2022-09-16T08:57:21.308Z,97979.00
2022-09-16T09:00:22.727Z,97985.13
2022-09-16T09:03:14.847Z,97978.28
2022-09-16T09:05:47.640Z,97987.34
2022-09-16T09:08:19.990Z,97980.47
2022-09-16T09:10:54.185Z,97979.78
2022-09-16T09:13:37.376Z,97981.16
2022-09-16T09:16:10.194Z,97977.03
2022-09-16T09:18:39.906Z,97980.09
2022-09-16T09:21:27.910Z,97971.94
2022-09-16T09:24:08.015Z,97977.84
2022-09-16T09:26:57.428Z,97968.84
2022-09-16T09:29:26.807Z,97961.03
2022-09-16T09:32:02.055Z,97960.78
2022-09-16T09:34:59.338Z,97962.19
2022-09-16T09:37:56.446Z,97976.81
2022-09-16T09:40:49.155Z,97955.00
2022-09-16T09:43:24.171Z,97951.13
2022-09-16T09:46:05.505Z,97953.22
2022-09-16T09:48:40.227Z,97944.88
2022-09-16T09:51:33.387Z,97959.06
2022-09-16T09:54:08.459Z,97951.00
2022-09-16T09:56:40.392Z,97956.88
2022-09-16T09:59:16.672Z,97962.66
2022-09-16T10:01:44.027Z,97966.03
2022-09-16T10:04:17.581Z,97967.50
2022-09-16T10:06:46.127Z,97961.34
2022-09-16T10:09:14.628Z,97957.03
2022-09-16T10:11:50.240Z,97963.22
2022-09-16T10:14:36.911Z,97963.44
2022-09-16T10:17:22.142Z,97962.72
2022-09-16T10:20:20.604Z,97960.94
2022-09-16T10:22:57.589Z,97948.31
2022-09-16T10:25:26.958Z,97942.53
2022-09-16T10:28:05.249Z,97936.00
2022-09-16T10:30:48.336Z,97940.81
2022-09-16T10:33:22.720Z,97932.47
2022-09-16T10:36:32.808Z,97939.97
2022-09-16T10:39:35.758Z,97942.75
2022-09-16T10:42:32.090Z,97931.66
2022-09-16T10:45:22.499Z,97930.94
2022-09-16T10:48:04.881Z,97931.56
2022-09-16T10:50:34.334Z,97931.44
2022-09-16T10:53:07.407Z,97929.00
2022-09-16T10:55:39.248Z,97927.63
2022-09-16T10:58:28.517Z,97936.75
2022-09-16T11:01:34.729Z,97925.09
2022-09-16T11:04:36.578Z,97926.78
2022-09-16T11:07:09.273Z,97922.56
2022-09-16T11:10:16.180Z,97926.41
2022-09-16T11:13:08.090Z,97931.53
2022-09-16T11:15:50.180Z,97935.91
2022-09-16T11:18:35.426Z,97944.84
2022-09-16T11:22:06.531Z,97940.22
2022-09-16T11:24:46.260Z,97940.44
2022-09-16T11:27:53.658Z,97942.25
2022-09-16T11:30:22.652Z,97944.00
2022-09-16T11:33:03.078Z,97948.25
2022-09-16T11:35:47.537Z,97947.78
2022-09-16T11:38:43.935Z,97944.31
2022-09-16T11:41:37.906Z,97941.38
2022-09-16T11:44:20.571Z,97937.28
2022-09-16T11:47:06.518Z,97933.00
2022-09-16T11:50:10.670Z,97934.28
2022-09-16T11:53:04.039Z,97929.41
2022-09-16T11:55:52.092Z,97930.72
2022-09-16T11:58:34.074Z,97933.31
2022-09-16T12:01:10.625Z,97938.66
2022-09-16T12:03:54.828Z,97926.81
2022-09-16T12:06:25.952Z,97923.00
2022-09-16T12:09:03.815Z,97920.06
2022-09-16T12:11:54.195Z,97925.06
2022-09-16T12:14:32.160Z,97923.44
2022-09-16T12:17:11.064Z,97928.28
2022-09-16T12:20:04.891Z,97926.56
2022-09-16T12:22:48.315Z,97929.16
2022-09-16T12:25:46.093Z,97923.19
2022-09-16T12:28:32.105Z,97918.75
2022-09-16T12:31:23.739Z,97918.59
2022-09-16T12:34:06.036Z,97914.56
2022-09-16T12:36:37.658Z,97917.50
2022-09-16T12:39:04.261Z,97918.31
2022-09-16T12:42:01.267Z,97911.75
2022-09-16T12:45:07.339Z,97915.28
2022-09-16T12:47:49.438Z,97904.69
2022-09-16T12:54:16.850Z,97889.16
2022-09-16T12:57:02.129Z,97884.47
2022-09-16T12:59:51.380Z,97882.25
2022-09-16T13:02:22.060Z,97881.06
2022-09-16T13:04:56.184Z,97878.19
2022-09-16T13:07:38.552Z,97880.50
2022-09-16T13:10:46.838Z,97886.50
2022-09-16T13:13:25.074Z,97875.09
2022-09-16T13:16:00.083Z,97874.88
2022-09-16T13:18:38.504Z,97867.38
2022-09-16T13:21:39.248Z,97869.81
2022-09-16T13:24:23.897Z,97866.13
2022-09-16T13:26:51.056Z,97864.84
2022-09-16T13:29:39.515Z,97861.97
2022-09-16T13:32:24.478Z,97866.09
2022-09-16T13:35:04.415Z,97859.28
2022-09-16T13:37:32.948Z,97863.41
2022-09-16T13:40:09.866Z,97867.66
2022-09-16T13:42:36.632Z,97860.19
2022-09-16T13:45:03.509Z,97869.69
2022-09-16T13:47:40.318Z,97862.41
2022-09-16T13:52:57.001Z,97858.91
2022-09-16T13:55:31.958Z,97854.75
2022-09-16T13:58:07.932Z,97846.66
2022-09-16T14:01:01.591Z,97846.34
2022-09-16T14:03:55.715Z,97837.06
2022-09-16T14:06:50.458Z,97839.28
2022-09-16T14:09:20.329Z,97846.53
2022-09-16T14:12:09.447Z,97839.75
2022-09-16T14:14:46.793Z,97834.06
2022-09-16T14:17:27.787Z,97835.19
2022-09-16T14:20:00.182Z,97830.53
2022-09-16T14:22:37.205Z,97832.34
2022-09-16T14:25:19.543Z,97815.19
2022-09-16T14:30:30.727Z,97820.63
2022-09-16T14:32:57.867Z,97829.41
2022-09-16T14:35:30.428Z,97827.84
2022-09-16T14:38:04.032Z,97832.72
2022-09-16T14:40:31.303Z,97833.00
2022-09-16T14:43:07.035Z,97840.06
2022-09-16T14:45:37.026Z,97838.91
2022-09-16T14:48:09.604Z,97836.78
2022-09-16T14:50:43.758Z,97829.34
2022-09-16T14:53:38.505Z,97832.97
2022-09-16T14:56:06.042Z,97829.47
2022-09-16T14:58:33.921Z,97832.19
2022-09-16T15:01:10.515Z,97827.91
2022-09-16T15:03:53.628Z,97821.44
2022-09-16T15:06:24.953Z,97824.28
2022-09-16T15:08:58.987Z,97826.72
2022-09-16T15:11:53.163Z,97827.69
2022-09-16T15:14:25.992Z,97825.06
2022-09-16T15:17:00.902Z,97827.28
2022-09-16T15:19:36.281Z,97825.50
2022-09-16T15:22:11.329Z,97823.84
2022-09-16T15:24:45.759Z,97826.66
2022-09-16T15:27:20.653Z,97821.56
2022-09-16T15:29:52.025Z,97827.06
2022-09-16T15:32:22.624Z,97827.06
2022-09-16T15:35:00.517Z,97830.00
2022-09-16T15:37:35.893Z,97824.25
2022-09-16T15:43:04.343Z,97827.53
2022-09-16T15:45:31.665Z,97835.03
2022-09-16T15:48:21.257Z,97827.31
2022-09-16T15:50:56.318Z,97836.25
2022-09-16T15:53:32.426Z,97829.50
2022-09-16T15:56:20.454Z,97841.59
2022-09-16T15:58:58.346Z,97833.88
2022-09-16T16:01:46.891Z,97833.72
2022-09-16T16:04:25.619Z,97848.28
2022-09-16T16:06:58.531Z,97861.97
2022-09-16T16:09:32.326Z,97873.44
2022-09-16T16:12:11.742Z,97878.91
2022-09-16T16:14:41.439Z,97898.53
2022-09-16T16:17:14.830Z,97901.84
2022-09-16T16:19:46.414Z,97898.13
2022-09-16T16:25:00.975Z,97893.72
2022-09-16T16:27:27.677Z,97889.34
2022-09-16T16:29:56.876Z,97890.72
2022-09-16T16:32:23.581Z,97889.81
2022-09-16T16:34:50.591Z,97896.53
2022-09-16T16:37:40.656Z,97899.75
2022-09-16T16:40:08.168Z,97909.09
2022-09-16T16:42:37.159Z,97905.16
2022-09-16T16:45:06.968Z,97906.19
2022-09-16T16:47:33.844Z,97897.69
2022-09-16T16:50:19.684Z,97899.00
2022-09-16T16:53:22.402Z,97902.88
2022-09-16T16:55:49.220Z,97896.69
2022-09-16T16:58:16.043Z,97900.16
2022-09-16T17:00:42.859Z,97895.75
2022-09-16T17:03:09.672Z,97911.34
2022-09-16T17:05:37.268Z,97909.06
2022-09-16T17:08:07.274Z,97908.84
2022-09-16T17:13:46.151Z,97927.06
2022-09-16T17:16:17.167Z,97915.50
2022-09-16T17:18:49.578Z,97920.03
2022-09-16T17:21:34.396Z,97924.00
2022-09-16T17:26:50.519Z,97931.19
2022-09-16T17:29:20.714Z,97939.56
2022-09-16T17:31:59.512Z,97942.22
2022-09-16T17:34:26.650Z,97940.38
2022-09-16T17:37:05.538Z,97943.25
2022-09-16T17:39:33.760Z,97943.25
2022-09-16T17:42:00.732Z,97945.38
2022-09-16T17:44:27.738Z,97947.47
2022-09-16T17:46:54.506Z,97956.38
2022-09-16T17:49:24.020Z,97951.41
2022-09-16T17:51:53.859Z,97952.44
2022-09-16T17:54:23.707Z,97954.28
2022-09-16T17:56:50.681Z,97963.69
2022-09-16T17:59:19.040Z,97955.06
2022-09-16T18:01:46.946Z,97956.84
2022-09-16T18:04:13.590Z,97966.53
2022-09-16T18:06:42.936Z,97963.94
2022-09-16T18:09:10.017Z,97956.34
2022-09-16T18:11:40.651Z,97964.72
2022-09-16T18:14:10.880Z,97962.84
2022-09-16T18:16:37.800Z,97962.34
2022-09-16T18:19:10.966Z,97965.19
2022-09-16T18:21:38.451Z,97961.28
2022-09-16T18:24:13.141Z,97960.50
2022-09-16T18:26:42.171Z,97967.84
2022-09-16T18:29:12.552Z,97965.25
2022-09-16T18:31:48.694Z,97965.78
2022-09-16T18:34:19.734Z,97970.75
2022-09-16T18:36:47.004Z,97979.13
2022-09-16T18:39:23.145Z,97977.81
2022-09-16T18:41:50.312Z,97982.81
2022-09-16T18:44:21.565Z,97975.22
2022-09-16T18:46:48.554Z,97974.97
2022-09-16T18:49:17.259Z,97978.63
2022-09-16T18:51:52.210Z,97980.22
2022-09-16T18:54:28.031Z,97979.94
2022-09-16T18:59:41.039Z,97976.00
2022-09-16T19:02:11.467Z,97974.69
2022-09-16T19:04:39.885Z,97972.28
2022-09-16T19:07:08.447Z,97977.22
2022-09-16T19:09:37.701Z,97975.38
2022-09-16T19:14:50.258Z,97972.47
2022-09-16T19:17:17.398Z,97981.59
2022-09-16T19:19:44.143Z,97982.66
2022-09-16T19:22:11.196Z,97977.69
2022-09-16T19:24:38.874Z,97975.56
2022-09-16T19:27:06.675Z,97975.31
2022-09-16T19:29:36.776Z,97989.16
2022-09-16T19:32:03.991Z,97987.81
2022-09-16T19:34:32.969Z,97987.03
2022-09-16T19:37:03.372Z,97989.59
2022-09-16T19:39:30.454Z,97993.25
2022-09-16T19:41:57.160Z,97997.91
2022-09-16T19:44:23.771Z,98002.03
2022-09-16T19:49:32.275Z,98007.03
2022-09-16T19:51:58.720Z,98013.81
2022-09-16T19:54:25.400Z,98012.00
2022-09-16T19:56:52.526Z,98011.75
2022-09-16T19:59:21.117Z,98008.34
2022-09-16T20:01:48.110Z,98002.56
2022-09-16T20:04:15.651Z,98006.91
2022-09-16T20:06:44.853Z,98011.31
2022-09-16T20:09:13.422Z,98009.97
2022-09-16T20:11:46.174Z,98006.56
2022-09-16T20:14:21.824Z,98006.25
2022-09-16T20:16:50.713Z,97999.13
2022-09-16T20:19:20.055Z,98004.69
2022-09-16T20:21:47.418Z,98002.09
2022-09-16T20:24:18.462Z,98004.22
2022-09-16T20:26:46.060Z,98006.78
2022-09-16T20:29:17.838Z,98003.34
2022-09-16T20:31:45.904Z,98017.34
2022-09-16T20:34:14.824Z,98014.97
2022-09-16T20:36:46.452Z,98009.44
2022-09-16T20:39:14.556Z,98010.66
2022-09-16T20:41:41.928Z,98015.94
2022-09-16T20:44:13.012Z,98021.09
2022-09-16T20:46:39.602Z,98015.31
2022-09-16T20:49:12.390Z,98023.63
2022-09-16T20:51:38.963Z,98025.44
2022-09-16T20:54:08.619Z,98026.00
2022-09-16T20:56:39.249Z,98027.53
2022-09-16T20:59:08.005Z,98025.94
2022-09-16T21:01:35.722Z,98023.81
2022-09-16T21:04:05.163Z,98028.31
2022-09-16T21:06:34.569Z,98027.97
2022-09-16T21:09:04.201Z,98035.69
2022-09-16T21:11:32.046Z,98035.16
2022-09-16T21:14:06.470Z,98048.13
2022-09-16T21:16:36.051Z,98049.44
2022-09-16T21:19:05.107Z,98054.88
2022-09-16T21:21:34.412Z,98063.00
2022-09-16T21:24:01.444Z,98054.59
2022-09-16T21:26:33.137Z,98054.44
2022-09-16T21:29:11.523Z,98055.97
2022-09-16T21:31:39.926Z,98045.44
2022-09-16T21:34:10.743Z,98061.63
2022-09-16T21:36:41.170Z,98060.25
2022-09-16T21:39:08.640Z,98058.13
2022-09-16T21:41:35.790Z,98055.81
2022-09-16T21:44:03.987Z,98049.56
2022-09-16T21:46:40.140Z,98054.53
2022-09-16T21:49:13.523Z,98054.31
2022-09-16T21:51:40.041Z,98061.53
2022-09-16T21:54:09.324Z,98073.09
2022-09-16T21:56:40.807Z,98071.19
2022-09-16T21:59:08.656Z,98074.31
2022-09-16T22:04:26.016Z,98075.47
2022-09-16T22:06:55.424Z,98070.81
2022-09-16T22:09:24.800Z,98079.59
2022-09-16T22:11:52.130Z,98075.97
2022-09-16T22:14:19.319Z,98078.28
2022-09-16T22:16:46.313Z,98078.97
2022-09-16T22:19:19.808Z,98076.28
2022-09-16T22:21:50.400Z,98084.59
2022-09-16T22:24:20.384Z,98079.84
2022-09-16T22:26:50.516Z,98080.09
2022-09-16T22:29:17.506Z,98079.84
2022-09-16T22:31:44.262Z,98077.72
2022-09-16T22:34:10.863Z,98074.94
2022-09-16T22:36:38.551Z,98072.31
2022-09-16T22:39:14.072Z,98071.22
2022-09-16T22:41:41.242Z,98065.22
2022-09-16T22:44:10.894Z,98065.56
2022-09-16T22:46:46.389Z,98067.28
2022-09-16T22:49:14.074Z,98068.88
2022-09-16T22:51:41.173Z,98073.13
2022-09-16T22:54:08.986Z,98069.25
2022-09-16T22:56:35.900Z,98071.88
2022-09-16T22:59:06.471Z,98074.84
2022-09-16T23:01:39.301Z,98089.34
2022-09-16T23:04:08.223Z,98088.06
2022-09-16T23:06:36.178Z,98081.53
2022-09-16T23:09:03.751Z,98086.88
2022-09-16T23:11:32.885Z,98086.09
2022-09-16T23:14:01.326Z,98084.06
2022-09-16T23:19:12.494Z,98077.72
2022-09-16T23:21:39.732Z,98084.69
2022-09-16T23:24:08.502Z,98080.41
2022-09-16T23:26:38.066Z,98080.66
2022-09-16T23:29:07.631Z,98078.03
2022-09-16T23:31:38.258Z,98073.13
2022-09-16T23:34:10.261Z,98071.53
2022-09-16T23:36:37.686Z,98075.97
2022-09-16T23:39:06.754Z,98070.22
2022-09-16T23:41:33.599Z,98082.47
2022-09-16T23:44:00.099Z,98083.81
2022-09-16T23:46:29.552Z,98080.00
2022-09-16T23:48:56.977Z,98079.16
2022-09-16T23:51:28.279Z,98072.50
2022-09-16T23:53:56.645Z,98074.47
2022-09-16T23:56:23.362Z,98071.31
2022-09-16T23:58:51.071Z,98078.84
